AirNav   Air Wisconsin pilot careers
 
 318 users online  

KSQL San Carlos Airport
San Carlos, California, USA

GOING TO SAN CARLOS?


FAA INFORMATION EFFECTIVE 08 NOVEMBER 2018

Location

FAA Identifier: SQL
Lat/Long: 37-30-42.7000N / 122-14-58.3120W
37-30.711667N / 122-14.971867W
37.5118611 / -122.2495311
(estimated)
Elevation: 5.5 ft. / 1.7 m (surveyed)
Variation: 15E (2000)
From city: 2 miles NE of SAN CARLOS, CA
Time zone: UTC -8 (UTC -7 during Daylight Saving Time)
Zip code: 94070

Airport Operations

Airport use: Open to the public
Activation date: 07/1952
Control tower: yes
ARTCC: OAKLAND CENTER
FSS: OAKLAND FLIGHT SERVICE STATION
NOTAMs facility: SQL (NOTAM-D service available)
Attendance: 0600-2200
Pattern altitude: 805.5 ft. MSL
Wind indicator: lighted
Segmented circle: yes
Lights: WHEN ATCT CLSD; ACTVT MIRL RWY 12/30 & REIL RWY 12/30 - 119.0
Beacon: white-green (lighted land airport)
Operates sunset to sunrise.

Airport Communications

CTAF: 119.0
UNICOM: 122.95
ATIS: 125.9
WX AWOS-3P: 125.9 (650-593-0613)
SAN CARLOS GROUND: 121.6 [0700-2100]
SAN CARLOS TOWER: 119.0 326.2 [0700-2100]
NORCAL APPROACH: 133.95 135.65
NORCAL DEPARTURE: 135.65
WX ASOS at SFO (9 nm NW): PHONE 650-872-0246
WX ASOS at HWD (11 nm NE): PHONE 510-786-3052
WX ASOS at NUQ (11 nm SE): 124.175 (650-604-1529)
WX AWOS-3 at HAF (12 nm W): 127.275 (650-728-5649)
WX ASOS at OAK (13 nm N): PHONE 510-214-1776
WX AWOS-AV at 18CN (17 nm NW): 119.925 (415-514-4209)
WX ASOS at SJC (18 nm SE): 126.95 (408-969-0838)
  • FREQ 121.5 NOT AVAILABLE.

Nearby radio navigation aids

VOR radial/distance  VOR name  Freq  Var
OSIr355/7.3WOODSIDE VOR/DME113.9017E
SFOr121/8.8SAN FRANCISCO VOR/DME115.8017E
OAKr168/12.9OAKLAND VOR/DME116.8017E
SJCr284/16.7SAN JOSE VOR/DME114.1016E
SAUr131/24.4SAUSALITO VOR/DME116.2017E
CCRr180/33.4CONCORD VOR/DME117.0017E

 
NDB name  Hdg/Dist  Freq  Var  ID
TRACY239/39.820315ETCY - -.-. -.--

Airport Services

Fuel available: 100LL JET-A JET-A+ MOGAS UL94
Parking: tiedowns
Airframe service: MAJOR
Powerplant service: MAJOR
Bottled oxygen: NONE
Bulk oxygen: NONE

Runway Information

Runway 12/30

Dimensions: 2621 x 75 ft. / 799 x 23 m
Surface: asphalt, in good condition
Weight bearing capacity: 
Single wheel: 12.5
Runway edge lights: medium intensity
RUNWAY 12  RUNWAY 30
Latitude: 37-30.872110N37-30.551228N
Longitude: 122-15.153375W122-14.790375W
Elevation: 5.0 ft.5.1 ft.
Traffic pattern: leftright
Runway heading: 123 magnetic, 138 true303 magnetic, 318 true
Markings: nonprecision, in good conditionnonprecision, in good condition
Visual slope indicator: 2-box VASI on left (3.00 degrees glide path)2-box VASI on left (3.00 degrees glide path)
Runway end identifier lights: yesyes
Touchdown point: yes, no lightsyes, no lights
Obstructions: 18 ft. pole, 565 ft. from runway, 80 ft. right of centerline, 20:1 slope to clearnone
7' LGTD DIKE 100' E OF CNTRLN AT THR, EXTENDING TO 60' E OF CNTRLN AT END OF PRIMARY SFC.

Airport Ownership and Management from official FAA records

Ownership: Publicly-owned
Owner: SAN MATEO COUNTY
555 COUNTY CENTER, 5TH FLOOR
REDWOOD CITY, CA 94063-1665
Phone 650-573-3700
DIRECTOR OF PUBLIC WORKS - JAMES PORTER.
Manager: GRETCHEN KELLY
620 AIRPORT DR
SAN CARLOS, CA 94070
Phone 650-573-3700

Airport Operational Statistics

Aircraft based on the field: 269
Single engine airplanes: 231
Multi engine airplanes: 27
Jet airplanes: 1
Helicopters: 10
    
Aircraft operations: avg 296/day *
44% local general aviation
38% transient general aviation
18% air taxi
<1% military
* for 12-month period ending 20 June 2017

Additional Remarks

FOR CD WHEN ATCT IS CLSD CTC NORCAL APCH AT 916-361-3829.
RABBIT AVIATION 130.00
LRG HEL SHOULD AVOID OVERFLIGHT OF DIRT INFIELD AREAS.
NO TGL OR STOP AND GO LDGS WHEN ATCT CLSD.
CALM WIND RWY 12.
NOISE SENSITIVE AREAS S THRU NE OF ARPT. FOR NOISE ABATEMENT PROCEDURES CTC AMGR (650) 573-3700.
MIGRATORY BIRD ACT ON & INVOF OF ARPT.
100 FT STEEL TRANSMISSION TWRS AND POWERLINES LCTD 750 FT WEST AND PARALLEL TO RWY 12/30.
7 FT LIGHTED DIKE LCTD IN RWY SAFETY AREA ON APCH END RWY 30.
HELICOPTER TRNG FLTS USE LEFT-TFC FOR RWY 30, AND RIGHT-TFC FOR RWY 12. HELICOPTER TPA 805(800).

Instrument Procedures

NOTE: All procedures below are presented as PDF files. If you need a reader for these files, you should download the free Adobe Reader.

NOT FOR NAVIGATION. Please procure official charts for flight.
FAA instrument procedures published for use from 8 November 2018 at 0901Z to 6 December 2018 at 0900Z.

 
STARs - Standard Terminal Arrivals
POINT REYES THREE   download (229KB)
POINT REYES THREE   download (229KB)
 
IAPs - Instrument Approach Procedures
RNAV (GPS) Y RWY 30   download (301KB)
RNAV (GPS) Z RWY 30   download (311KB)
NOTE: Special Alternate Minimums apply   download (59KB)
NOTE: Special Take-Off Minimums/Departure Procedures apply   download (211KB)

Other nearby airports with instrument procedures:

KPAO - Palo Alto Airport (7 nm SE)
KSFO - San Francisco International Airport (9 nm NW)
KHWD - Hayward Executive Airport (11 nm NE)
KNUQ - Moffett Federal Airfield (11 nm SE)
KHAF - Half Moon Bay Airport (12 nm W)
KOAK - Metropolitan Oakland International Airport (13 nm N)
KSJC - Norman Y Mineta San Jose International Airport (18 nm SE)
 
Loc | Ops | Rwys | IFR | FBO | Links
Com | Nav | Svcs | Stats | Notes

Mountain West Aviation, LLC
 
Area around KSQL (San Carlos Airport)
 
Road maps at: MapQuest Bing Google
 
Aerial photo
WARNING: Photo may not be current or correct
Aerial photo of KSQL (San Carlos Airport)
Photo by Chris Leipelt
Photo taken 30-Dec-2015
looking east.

Do you have a better or more recent aerial photo of San Carlos Airport that you would like to share? If so, please send us your photo.

 
Sectional chart

 
Airport diagram
Diagram of KSQL (San Carlos Airport)
Download PDF
of official airport diagram from the FAA

 
Airport distance calculator
Flying to San Carlos Airport? Find the distance to fly.

From to KSQL

Sunrise and sunset
Times for 18-Nov-2018
 Local
(UTC-8)
 Zulu
(UTC)
Morning civil twilight06:2514:25
Sunrise06:5314:53
Sunset16:5500:55
Evening civil twilight17:2401:24

Current date and time
Zulu (UTC)  18-Nov-2018 08:04:29
Local (UTC-8)  18-Nov-2018 00:04:29
 
METAR
KSQL 180755Z AUTO 00000KT 4SM BR OVC018 08/07 A3007 RMK AO2
KPAO 
7nm SE 
180447Z 00000KT 3SM FU SKC 09/08 A3005
KSFO 
8nm NW 
180756Z 21003KT 6SM HZ FU BKN023 09/07 A3006 RMK AO2 SLP180 FU BKN023 T00940067 401610067 $
KHWD 
11nm NE 
180754Z 06004KT 3SM HZ FU CLR 08/04 A3007 RMK AO2 SLP191 T00830044 401780050
KOAK 
11nm N 
180753Z 06003KT 3SM BR BKN021 07/07 A3008 RMK AO2 SLP183 FU BKN019 T00720067 401610033
KNUQ 
12nm SE 
180756Z 00000KT 3SM FU CLR 08/06 A3008 RMK AO2 SLP188 T00780061 401610044
KHAF 
12nm W 
180755Z AUTO 00000KT 2 1/2SM BR OVC016 05/04 A3008 RMK AO2
KSJC 
18nm SE 
180753Z 00000KT 3SM HZ FEW001 SCT010 SCT030 08/06 A3007 RMK AO2 SLP182 FU FEW001 FU SCT010 FU SCT030 T00830056 401780044 $
TAF
KSFO 
8nm NW 
180558Z 1806/1912 29005KT 3SM FU HZ BKN025 FM181100 VRB03KT 2SM FU BR FEW007 BKN012 TEMPO 1812/1816 3/4SM FU BR SCT004 BKN009 FM181800 VRB03KT 2SM FU HZ FEW008 SCT012 FM182100 33005KT 4SM FU HZ FEW012 SCT200 FM190400 VRB03KT 3SM FU HZ FEW008 SCT015 BKN200
KOAK 
11nm N 
180530Z 1806/1912 VRB03KT 3SM FU BR BKN020 BKN200 FM180900 VRB03KT 2SM FU BR SCT007 BKN015 TEMPO 1812/1816 00000KT 1/2SM FU FG VV002 FM181800 VRB04KT 3SM FU HZ SCT005 BKN015 FM182100 30005KT 5SM FU HZ SCT020 SCT200 FM190400 VRB03KT 5SM FU BR FEW008 SCT020 BKN200 FM190700 VRB03KT 3SM FU BR BKN008 BKN200
KSJC 
18nm SE 
180530Z 1806/1906 VRB03KT 3SM FU HZ SCT013 BKN035 FM181200 00000KT 2SM FU BR SCT008 OVC012 TEMPO 1813/1816 1SM FU BR FM181700 VRB03KT 3SM FU HZ FEW010 SCT015 FM182100 30005KT 5SM FU HZ FEW020 SCT200 FM190400 VRB03KT 3SM FU HZ FEW015 BKN200
NOTAMs
Click for the latest NOTAMs
NOTAMs are issued by the DoD/FAA and will open in a separate window not controlled by AirNav.

 

 
 

FBO, Fuel Providers, and Aircraft Ground Support

  
 Business Name 
 
 Contact 
 
 Services / Description 
 
Fuel Prices
 
Comments
  
Rabbit Aviation Services 650-591-5857
650-716-6579
[web site]
[email]
Aviation fuel, Aircraft ground handling, GPU / Power cart, Aircraft cleaning / washing / detailing, Rental cars on site

More info about Rabbit Aviation Services
independent
100LL Jet A
FS $5.35 $4.65 
GUARANTEED
 
   9 read write
FS=Full service
Update Fuel Prices
 

Aviation Businesses, Services, and Facilities

  
 Business Name 
 
 Contact 
 
 Services / Description 
 
Distance
 
Comments
  
AirplanesUSA Aircraft Sales 650-394-7610
847-331-3133
[web site]
[email]
Aircraft sales / leasing / brokerage
More info and photos of AirplanesUSA Aircraft Sales
on airport  
   write
ROAM by Encompass Aviation, LLC toll-free 1-800-765-0075
[web site]
[email]

Like us on facebook See us on instagram See us on linkedin Follow us on twitter
ROAM provides safe, convenient, affordable, business class transportation throughout California. Flying that makes you feel free again..

We fly charters to any of 251 cities throughout California.

Watch for a our new scheduled passenger service coming soon!

ROAM ..if you want to..
More info and photos of ROAM by Encompass Aviation, LLC
 
WSI Pilotbrief   Pilatus Aircraft   Wireless Internet Access (WiFi)   National Business Aviation Association  
 
on airport  
   write
 San Carlos Flight Center
650-946-1700
[web site]
[email]
Flight training, Aircraft rental, Aerial tours / aerial sightseeing, Flying club, Internet access, Restrooms

More info about San Carlos Flight Center
on airport  
   write
West Valley Flying Club 650-856-2030
[web site]
Flight training, Aircraft rental, Pilot supplies, Flying club

More info about West Valley Flying Club
on airport  
   write
Diamond Aviation 650-591-7611
no information available

If you are affiliated with Diamond Aviation and would like to show here your services, contact info, web link, logo, and more, click here
on airport  
   write
 

Where to Eat: Catering, Restaurants, Food shops

  
 Business Name 
 
 Contact 
 
 Services / Description 
 
Distance
 
Comments
  
Burger King 650-596-5610
no information available

If you are affiliated with Burger King and would like to show here your services, contact info, web link, logo, and more, click here
on airport  
   write
Sky Kitchen 650-595-0464
no information available

If you are affiliated with Sky Kitchen and would like to show here your services, contact info, web link, logo, and more, click here
on airport  
   1 read write
 

Things to do: Attractions on or near the airport

  
 Business Name 
 
 Contact 
 
 Services / Description 
 
Distance
 
Comments
  
Hiller Aviation Museum 650-654-0200
no information available

If you are affiliated with Hiller Aviation Museum and would like to show here your services, contact info, web link, logo, and more, click here
on airport  
   1 read write
 

Would you like to see your business listed on this page?

 If your business provides an interesting product or service to pilots, flight crews, aircraft, or users of the San Carlos Airport, you should consider listing it here.  To start the listing process, click on the button below
 
Add a business
 

Other Pages about San Carlos Airport

publicworks.smcgov.org/san-carlos-airport
www.sancarlospilots.org
 
Update a link
 
Copyright © AirNav, LLC. All rights reserved. Privacy Policy  Contact